sensor_id;sensor_type;location;lat;lon;timestamp;P1;durP1;ratioP1;P2;durP2;ratioP2
21519;SDS011;10921;53.614;9.882;2022-09-28T00:00:58;18.63;;;16.73;;
21519;SDS011;10921;53.614;9.882;2022-09-28T00:03:25;20.98;;;16.85;;
21519;SDS011;10921;53.614;9.882;2022-09-28T00:05:58;18.20;;;16.40;;
21519;SDS011;10921;53.614;9.882;2022-09-28T00:08:26;19.77;;;17.58;;
21519;SDS011;10921;53.614;9.882;2022-09-28T00:10:56;19.77;;;17.67;;
21519;SDS011;10921;53.614;9.882;2022-09-28T00:13:23;19.90;;;17.17;;
21519;SDS011;10921;53.614;9.882;2022-09-28T00:15:59;18.85;;;16.95;;
21519;SDS011;10921;53.614;9.882;2022-09-28T00:18:26;19.95;;;17.70;;
21519;SDS011;10921;53.614;9.882;2022-09-28T00:23:38;20.35;;;18.30;;
21519;SDS011;10921;53.614;9.882;2022-09-28T00:26:24;21.27;;;18.85;;
21519;SDS011;10921;53.614;9.882;2022-09-28T00:28:55;20.92;;;18.77;;
21519;SDS011;10921;53.614;9.882;2022-09-28T00:31:24;22.58;;;18.50;;
21519;SDS011;10921;53.614;9.882;2022-09-28T00:33:52;21.52;;;19.23;;
21519;SDS011;10921;53.614;9.882;2022-09-28T00:38:53;24.63;;;21.02;;
21519;SDS011;10921;53.614;9.882;2022-09-28T00:41:24;21.92;;;19.63;;
21519;SDS011;10921;53.614;9.882;2022-09-28T00:43:53;22.10;;;19.88;;
21519;SDS011;10921;53.614;9.882;2022-09-28T00:46:52;24.10;;;19.75;;
21519;SDS011;10921;53.614;9.882;2022-09-28T00:49:27;24.10;;;20.40;;
21519;SDS011;10921;53.614;9.882;2022-09-28T00:52:10;23.98;;;19.70;;
21519;SDS011;10921;53.614;9.882;2022-09-28T00:54:40;22.15;;;19.90;;
21519;SDS011;10921;53.614;9.882;2022-09-28T00:57:08;23.05;;;20.42;;
21519;SDS011;10921;53.614;9.882;2022-09-28T00:59:34;21.65;;;19.40;;
21519;SDS011;10921;53.614;9.882;2022-09-28T01:02:01;20.77;;;18.73;;
21519;SDS011;10921;53.614;9.882;2022-09-28T01:04:28;21.10;;;18.98;;
21519;SDS011;10921;53.614;9.882;2022-09-28T01:06:56;22.00;;;19.92;;
21519;SDS011;10921;53.614;9.882;2022-09-28T01:09:24;22.27;;;19.40;;
21519;SDS011;10921;53.614;9.882;2022-09-28T01:11:52;22.35;;;20.05;;
21519;SDS011;10921;53.614;9.882;2022-09-28T01:14:20;22.88;;;20.52;;
21519;SDS011;10921;53.614;9.882;2022-09-28T01:17:03;22.58;;;20.27;;
21519;SDS011;10921;53.614;9.882;2022-09-28T01:19:41;21.92;;;19.63;;
21519;SDS011;10921;53.614;9.882;2022-09-28T01:22:40;21.25;;;18.98;;
21519;SDS011;10921;53.614;9.882;2022-09-28T01:27:38;23.15;;;20.67;;
21519;SDS011;10921;53.614;9.882;2022-09-28T01:30:11;23.48;;;21.08;;
21519;SDS011;10921;53.614;9.882;2022-09-28T01:35:24;24.95;;;22.27;;
21519;SDS011;10921;53.614;9.882;2022-09-28T01:37:55;26.02;;;22.77;;
21519;SDS011;10921;53.614;9.882;2022-09-28T01:40:27;26.23;;;23.42;;
21519;SDS011;10921;53.614;9.882;2022-09-28T01:42:58;26.15;;;22.73;;
21519;SDS011;10921;53.614;9.882;2022-09-28T01:45:31;25.67;;;23.10;;
21519;SDS011;10921;53.614;9.882;2022-09-28T01:48:02;25.50;;;22.80;;
21519;SDS011;10921;53.614;9.882;2022-09-28T01:50:33;27.67;;;23.20;;
21519;SDS011;10921;53.614;9.882;2022-09-28T01:53:06;26.75;;;23.80;;
21519;SDS011;10921;53.614;9.882;2022-09-28T01:55:42;25.83;;;23.23;;
21519;SDS011;10921;53.614;9.882;2022-09-28T02:01:18;29.23;;;26.13;;
21519;SDS011;10921;53.614;9.882;2022-09-28T02:03:51;29.77;;;25.83;;
21519;SDS011;10921;53.614;9.882;2022-09-28T02:06:25;28.17;;;25.17;;
21519;SDS011;10921;53.614;9.882;2022-09-28T02:08:58;25.75;;;23.25;;
21519;SDS011;10921;53.614;9.882;2022-09-28T02:11:31;29.20;;;26.10;;
21519;SDS011;10921;53.614;9.882;2022-09-28T02:14:06;28.05;;;25.02;;
21519;SDS011;10921;53.614;9.882;2022-09-28T02:16:41;34.28;;;23.92;;
21519;SDS011;10921;53.614;9.882;2022-09-28T02:21:47;27.73;;;24.80;;
21519;SDS011;10921;53.614;9.882;2022-09-28T02:24:21;27.20;;;24.55;;
21519;SDS011;10921;53.614;9.882;2022-09-28T02:26:52;26.20;;;23.58;;
21519;SDS011;10921;53.614;9.882;2022-09-28T02:29:24;26.20;;;23.42;;
21519;SDS011;10921;53.614;9.882;2022-09-28T02:31:50;27.20;;;23.25;;
21519;SDS011;10921;53.614;9.882;2022-09-28T02:34:17;27.58;;;24.67;;
21519;SDS011;10921;53.614;9.882;2022-09-28T02:36:45;26.00;;;23.40;;
21519;SDS011;10921;53.614;9.882;2022-09-28T02:39:13;26.70;;;23.83;;
21519;SDS011;10921;53.614;9.882;2022-09-28T02:49:57;25.02;;;22.63;;
21519;SDS011;10921;53.614;9.882;2022-09-28T02:58:18;23.00;;;20.77;;
21519;SDS011;10921;53.614;9.882;2022-09-28T03:04:07;27.92;;;23.60;;
21519;SDS011;10921;53.614;9.882;2022-09-28T03:06:54;27.77;;;22.83;;
21519;SDS011;10921;53.614;9.882;2022-09-28T03:09:33;24.52;;;22.13;;
21519;SDS011;10921;53.614;9.882;2022-09-28T03:12:21;27.75;;;24.85;;
21519;SDS011;10921;53.614;9.882;2022-09-28T03:17:37;28.05;;;23.67;;
21519;SDS011;10921;53.614;9.882;2022-09-28T03:20:03;25.70;;;23.13;;
21519;SDS011;10921;53.614;9.882;2022-09-28T03:22:30;25.92;;;23.23;;
21519;SDS011;10921;53.614;9.882;2022-09-28T03:24:57;25.55;;;22.42;;
21519;SDS011;10921;53.614;9.882;2022-09-28T03:27:23;25.52;;;22.75;;
21519;SDS011;10921;53.614;9.882;2022-09-28T03:29:49;26.73;;;23.48;;
21519;SDS011;10921;53.614;9.882;2022-09-28T03:32:16;26.77;;;23.83;;
21519;SDS011;10921;53.614;9.882;2022-09-28T03:34:42;32.55;;;23.48;;
21519;SDS011;10921;53.614;9.882;2022-09-28T03:37:09;25.17;;;22.38;;
21519;SDS011;10921;53.614;9.882;2022-09-28T03:39:35;25.98;;;23.33;;
21519;SDS011;10921;53.614;9.882;2022-09-28T03:42:02;28.92;;;24.70;;
21519;SDS011;10921;53.614;9.882;2022-09-28T03:44:28;29.38;;;24.13;;
21519;SDS011;10921;53.614;9.882;2022-09-28T03:46:54;28.08;;;24.73;;
21519;SDS011;10921;53.614;9.882;2022-09-28T03:49:21;37.50;;;26.40;;
21519;SDS011;10921;53.614;9.882;2022-09-28T03:51:47;29.63;;;26.35;;
21519;SDS011;10921;53.614;9.882;2022-09-28T03:54:14;30.35;;;25.58;;
21519;SDS011;10921;53.614;9.882;2022-09-28T03:56:40;31.77;;;26.50;;
21519;SDS011;10921;53.614;9.882;2022-09-28T03:59:07;37.47;;;28.80;;
21519;SDS011;10921;53.614;9.882;2022-09-28T04:01:33;38.70;;;30.52;;
21519;SDS011;10921;53.614;9.882;2022-09-28T04:03:59;42.38;;;32.25;;
21519;SDS011;10921;53.614;9.882;2022-09-28T04:06:26;39.53;;;31.40;;
21519;SDS011;10921;53.614;9.882;2022-09-28T04:08:53;40.17;;;33.22;;
21519;SDS011;10921;53.614;9.882;2022-09-28T04:11:19;43.03;;;32.05;;
21519;SDS011;10921;53.614;9.882;2022-09-28T04:13:49;42.47;;;33.03;;
21519;SDS011;10921;53.614;9.882;2022-09-28T04:16:15;40.22;;;33.13;;
21519;SDS011;10921;53.614;9.882;2022-09-28T04:18:43;40.58;;;32.55;;
21519;SDS011;10921;53.614;9.882;2022-09-28T04:21:10;43.33;;;33.42;;
21519;SDS011;10921;53.614;9.882;2022-09-28T04:23:38;45.03;;;34.45;;
21519;SDS011;10921;53.614;9.882;2022-09-28T04:26:06;43.63;;;33.67;;
21519;SDS011;10921;53.614;9.882;2022-09-28T04:28:42;45.53;;;33.45;;
21519;SDS011;10921;53.614;9.882;2022-09-28T04:31:38;48.10;;;35.53;;
21519;SDS011;10921;53.614;9.882;2022-09-28T04:34:11;51.13;;;36.60;;
21519;SDS011;10921;53.614;9.882;2022-09-28T04:36:40;44.60;;;34.42;;
21519;SDS011;10921;53.614;9.882;2022-09-28T04:39:06;48.85;;;37.45;;
21519;SDS011;10921;53.614;9.882;2022-09-28T04:41:32;56.45;;;36.55;;
21519;SDS011;10921;53.614;9.882;2022-09-28T04:43:59;47.78;;;36.90;;
21519;SDS011;10921;53.614;9.882;2022-09-28T04:46:25;48.05;;;36.47;;
21519;SDS011;10921;53.614;9.882;2022-09-28T04:48:52;49.08;;;35.42;;
21519;SDS011;10921;53.614;9.882;2022-09-28T04:51:18;44.92;;;33.55;;
21519;SDS011;10921;53.614;9.882;2022-09-28T04:53:45;49.92;;;36.05;;
21519;SDS011;10921;53.614;9.882;2022-09-28T04:56:12;48.25;;;36.20;;
21519;SDS011;10921;53.614;9.882;2022-09-28T04:58:40;46.42;;;34.70;;
21519;SDS011;10921;53.614;9.882;2022-09-28T05:01:07;51.85;;;34.67;;
21519;SDS011;10921;53.614;9.882;2022-09-28T05:03:36;44.67;;;34.78;;
21519;SDS011;10921;53.614;9.882;2022-09-28T05:06:03;45.20;;;32.70;;
21519;SDS011;10921;53.614;9.882;2022-09-28T05:08:30;43.33;;;32.97;;
21519;SDS011;10921;53.614;9.882;2022-09-28T05:11:00;47.85;;;35.63;;
21519;SDS011;10921;53.614;9.882;2022-09-28T05:13:29;46.55;;;32.70;;
21519;SDS011;10921;53.614;9.882;2022-09-28T05:15:56;40.63;;;31.25;;
21519;SDS011;10921;53.614;9.882;2022-09-28T05:18:30;46.45;;;33.13;;
21519;SDS011;10921;53.614;9.882;2022-09-28T05:20:56;46.95;;;33.08;;
21519;SDS011;10921;53.614;9.882;2022-09-28T05:23:23;41.00;;;32.35;;
21519;SDS011;10921;53.614;9.882;2022-09-28T05:25:49;38.17;;;30.95;;
21519;SDS011;10921;53.614;9.882;2022-09-28T05:28:21;53.20;;;35.00;;
21519;SDS011;10921;53.614;9.882;2022-09-28T05:30:51;49.80;;;31.85;;
21519;SDS011;10921;53.614;9.882;2022-09-28T05:33:17;42.65;;;31.17;;
21519;SDS011;10921;53.614;9.882;2022-09-28T05:35:44;52.70;;;33.72;;
21519;SDS011;10921;53.614;9.882;2022-09-28T05:38:16;54.20;;;36.00;;
21519;SDS011;10921;53.614;9.882;2022-09-28T05:40:42;63.15;;;33.53;;
21519;SDS011;10921;53.614;9.882;2022-09-28T05:43:08;43.50;;;32.03;;
21519;SDS011;10921;53.614;9.882;2022-09-28T05:45:35;46.25;;;31.88;;
21519;SDS011;10921;53.614;9.882;2022-09-28T05:48:02;48.17;;;32.83;;
21519;SDS011;10921;53.614;9.882;2022-09-28T05:50:28;42.97;;;32.72;;
21519;SDS011;10921;53.614;9.882;2022-09-28T05:53:08;52.83;;;32.25;;
21519;SDS011;10921;53.614;9.882;2022-09-28T05:55:35;42.15;;;31.48;;
21519;SDS011;10921;53.614;9.882;2022-09-28T05:58:04;40.22;;;30.02;;
21519;SDS011;10921;53.614;9.882;2022-09-28T06:00:31;42.30;;;31.80;;
21519;SDS011;10921;53.614;9.882;2022-09-28T06:02:59;45.15;;;31.88;;
21519;SDS011;10921;53.614;9.882;2022-09-28T06:05:34;56.95;;;33.58;;
21519;SDS011;10921;53.614;9.882;2022-09-28T06:08:01;124.55;;;31.67;;
21519;SDS011;10921;53.614;9.882;2022-09-28T06:10:30;79.60;;;32.15;;
21519;SDS011;10921;53.614;9.882;2022-09-28T06:12:57;114.97;;;30.58;;
21519;SDS011;10921;53.614;9.882;2022-09-28T06:15:25;86.00;;;30.90;;
21519;SDS011;10921;53.614;9.882;2022-09-28T06:17:56;52.55;;;30.27;;
21519;SDS011;10921;53.614;9.882;2022-09-28T06:20:28;50.15;;;31.00;;
21519;SDS011;10921;53.614;9.882;2022-09-28T06:22:56;84.97;;;32.35;;
21519;SDS011;10921;53.614;9.882;2022-09-28T06:25:23;48.42;;;30.98;;
21519;SDS011;10921;53.614;9.882;2022-09-28T06:27:57;44.67;;;31.77;;
21519;SDS011;10921;53.614;9.882;2022-09-28T06:30:27;45.28;;;31.40;;
21519;SDS011;10921;53.614;9.882;2022-09-28T06:32:55;50.55;;;30.75;;
21519;SDS011;10921;53.614;9.882;2022-09-28T06:35:23;44.22;;;30.63;;
21519;SDS011;10921;53.614;9.882;2022-09-28T06:37:51;44.58;;;32.75;;
21519;SDS011;10921;53.614;9.882;2022-09-28T06:40:19;46.55;;;31.67;;
21519;SDS011;10921;53.614;9.882;2022-09-28T06:43:06;44.53;;;31.35;;
21519;SDS011;10921;53.614;9.882;2022-09-28T06:45:40;45.03;;;30.65;;
21519;SDS011;10921;53.614;9.882;2022-09-28T06:48:08;66.63;;;31.13;;
21519;SDS011;10921;53.614;9.882;2022-09-28T06:50:36;42.75;;;30.58;;
21519;SDS011;10921;53.614;9.882;2022-09-28T06:53:05;43.25;;;29.02;;
21519;SDS011;10921;53.614;9.882;2022-09-28T06:55:37;44.42;;;29.85;;
21519;SDS011;10921;53.614;9.882;2022-09-28T06:58:05;41.53;;;29.80;;
21519;SDS011;10921;53.614;9.882;2022-09-28T07:00:33;53.13;;;34.75;;
21519;SDS011;10921;53.614;9.882;2022-09-28T07:03:02;51.38;;;32.25;;
21519;SDS011;10921;53.614;9.882;2022-09-28T07:05:30;57.83;;;32.83;;
21519;SDS011;10921;53.614;9.882;2022-09-28T07:08:00;79.25;;;32.83;;
21519;SDS011;10921;53.614;9.882;2022-09-28T07:10:27;56.80;;;33.05;;
21519;SDS011;10921;53.614;9.882;2022-09-28T07:12:55;50.38;;;31.00;;
21519;SDS011;10921;53.614;9.882;2022-09-28T07:15:23;69.70;;;35.90;;
21519;SDS011;10921;53.614;9.882;2022-09-28T07:17:55;45.92;;;32.88;;
21519;SDS011;10921;53.614;9.882;2022-09-28T07:20:28;49.03;;;34.53;;
21519;SDS011;10921;53.614;9.882;2022-09-28T07:22:57;52.95;;;35.67;;
21519;SDS011;10921;53.614;9.882;2022-09-28T07:25:41;51.65;;;34.67;;
21519;SDS011;10921;53.614;9.882;2022-09-28T07:28:12;51.83;;;36.38;;
21519;SDS011;10921;53.614;9.882;2022-09-28T07:30:39;47.15;;;32.38;;
21519;SDS011;10921;53.614;9.882;2022-09-28T07:33:07;50.05;;;35.35;;
21519;SDS011;10921;53.614;9.882;2022-09-28T07:38:04;53.42;;;35.28;;
21519;SDS011;10921;53.614;9.882;2022-09-28T07:40:32;46.80;;;34.20;;
21519;SDS011;10921;53.614;9.882;2022-09-28T07:43:18;52.72;;;35.47;;
21519;SDS011;10921;53.614;9.882;2022-09-28T07:45:46;50.88;;;35.20;;
21519;SDS011;10921;53.614;9.882;2022-09-28T07:48:14;52.90;;;35.80;;
21519;SDS011;10921;53.614;9.882;2022-09-28T07:50:45;47.60;;;33.88;;
21519;SDS011;10921;53.614;9.882;2022-09-28T07:53:13;40.85;;;32.50;;
21519;SDS011;10921;53.614;9.882;2022-09-28T07:55:39;49.17;;;35.72;;
21519;SDS011;10921;53.614;9.882;2022-09-28T07:58:06;46.20;;;34.35;;
21519;SDS011;10921;53.614;9.882;2022-09-28T08:00:32;47.78;;;35.08;;
21519;SDS011;10921;53.614;9.882;2022-09-28T08:03:02;44.92;;;35.25;;
21519;SDS011;10921;53.614;9.882;2022-09-28T08:05:28;47.25;;;35.22;;
21519;SDS011;10921;53.614;9.882;2022-09-28T08:08:01;43.95;;;32.70;;
21519;SDS011;10921;53.614;9.882;2022-09-28T08:10:27;44.83;;;34.70;;
21519;SDS011;10921;53.614;9.882;2022-09-28T08:12:54;46.35;;;35.25;;
21519;SDS011;10921;53.614;9.882;2022-09-28T08:15:27;44.03;;;35.00;;
21519;SDS011;10921;53.614;9.882;2022-09-28T08:17:54;46.10;;;34.22;;
21519;SDS011;10921;53.614;9.882;2022-09-28T08:20:27;43.13;;;31.90;;
21519;SDS011;10921;53.614;9.882;2022-09-28T08:23:31;37.05;;;30.08;;
21519;SDS011;10921;53.614;9.882;2022-09-28T08:25:58;38.22;;;30.33;;
21519;SDS011;10921;53.614;9.882;2022-09-28T08:28:24;34.53;;;29.42;;
21519;SDS011;10921;53.614;9.882;2022-09-28T08:30:51;37.10;;;29.10;;
21519;SDS011;10921;53.614;9.882;2022-09-28T08:33:18;37.05;;;30.25;;
21519;SDS011;10921;53.614;9.882;2022-09-28T08:35:46;35.95;;;30.27;;
21519;SDS011;10921;53.614;9.882;2022-09-28T08:38:13;31.67;;;27.67;;
21519;SDS011;10921;53.614;9.882;2022-09-28T08:40:47;33.40;;;28.02;;
21519;SDS011;10921;53.614;9.882;2022-09-28T08:43:28;33.67;;;27.73;;
21519;SDS011;10921;53.614;9.882;2022-09-28T08:49:02;32.40;;;27.05;;
21519;SDS011;10921;53.614;9.882;2022-09-28T08:52:17;31.48;;;26.13;;
21519;SDS011;10921;53.614;9.882;2022-09-28T08:54:55;29.98;;;26.67;;
21519;SDS011;10921;53.614;9.882;2022-09-28T09:00:08;27.13;;;24.25;;
21519;SDS011;10921;53.614;9.882;2022-09-28T09:02:42;33.30;;;25.15;;
21519;SDS011;10921;53.614;9.882;2022-09-28T09:05:13;27.35;;;24.48;;
21519;SDS011;10921;53.614;9.882;2022-09-28T09:07:53;31.45;;;24.88;;
21519;SDS011;10921;53.614;9.882;2022-09-28T09:13:01;26.48;;;23.65;;
21519;SDS011;10921;53.614;9.882;2022-09-28T09:15:56;25.05;;;22.45;;
21519;SDS011;10921;53.614;9.882;2022-09-28T09:18:47;24.55;;;21.88;;
21519;SDS011;10921;53.614;9.882;2022-09-28T09:21:38;25.50;;;22.88;;
21519;SDS011;10921;53.614;9.882;2022-09-28T09:24:23;24.50;;;21.85;;
21519;SDS011;10921;53.614;9.882;2022-09-28T09:26:58;25.02;;;22.33;;
21519;SDS011;10921;53.614;9.882;2022-09-28T09:30:05;25.13;;;22.55;;
21519;SDS011;10921;53.614;9.882;2022-09-28T09:32:46;25.20;;;22.52;;
21519;SDS011;10921;53.614;9.882;2022-09-28T09:38:28;25.88;;;23.13;;
21519;SDS011;10921;53.614;9.882;2022-09-28T09:46:52;23.10;;;20.27;;
21519;SDS011;10921;53.614;9.882;2022-09-28T09:49:39;23.27;;;20.88;;
21519;SDS011;10921;53.614;9.882;2022-09-28T09:52:13;25.83;;;22.13;;
21519;SDS011;10921;53.614;9.882;2022-09-28T09:57:34;21.77;;;19.67;;
21519;SDS011;10921;53.614;9.882;2022-09-28T10:00:16;22.05;;;19.77;;
21519;SDS011;10921;53.614;9.882;2022-09-28T10:02:44;21.65;;;19.45;;
21519;SDS011;10921;53.614;9.882;2022-09-28T10:05:18;25.33;;;20.70;;
21519;SDS011;10921;53.614;9.882;2022-09-28T10:10:34;18.30;;;16.58;;
21519;SDS011;10921;53.614;9.882;2022-09-28T10:13:03;17.95;;;16.23;;
21519;SDS011;10921;53.614;9.882;2022-09-28T10:15:30;17.20;;;15.55;;
21519;SDS011;10921;53.614;9.882;2022-09-28T10:18:00;21.25;;;16.50;;
21519;SDS011;10921;53.614;9.882;2022-09-28T10:20:33;18.75;;;16.55;;
21519;SDS011;10921;53.614;9.882;2022-09-28T10:23:03;16.58;;;14.85;;
21519;SDS011;10921;53.614;9.882;2022-09-28T10:25:33;31.77;;;29.00;;
21519;SDS011;10921;53.614;9.882;2022-09-28T10:28:03;15.40;;;13.75;;
21519;SDS011;10921;53.614;9.882;2022-09-28T10:30:33;15.52;;;13.98;;
21519;SDS011;10921;53.614;9.882;2022-09-28T10:33:28;18.35;;;16.50;;
21519;SDS011;10921;53.614;9.882;2022-09-28T10:35:59;17.08;;;15.48;;
21519;SDS011;10921;53.614;9.882;2022-09-28T10:38:27;17.23;;;15.02;;
21519;SDS011;10921;53.614;9.882;2022-09-28T10:40:59;15.10;;;13.60;;
21519;SDS011;10921;53.614;9.882;2022-09-28T10:43:36;18.88;;;15.40;;
21519;SDS011;10921;53.614;9.882;2022-09-28T10:46:06;15.35;;;14.05;;
21519;SDS011;10921;53.614;9.882;2022-09-28T10:48:37;16.30;;;14.38;;
21519;SDS011;10921;53.614;9.882;2022-09-28T10:51:16;17.00;;;14.70;;
21519;SDS011;10921;53.614;9.882;2022-09-28T10:53:57;14.90;;;13.55;;
21519;SDS011;10921;53.614;9.882;2022-09-28T10:56:29;13.15;;;12.25;;
21519;SDS011;10921;53.614;9.882;2022-09-28T10:59:01;13.00;;;11.73;;
21519;SDS011;10921;53.614;9.882;2022-09-28T11:01:47;12.85;;;11.75;;
21519;SDS011;10921;53.614;9.882;2022-09-28T11:04:21;12.75;;;11.65;;
21519;SDS011;10921;53.614;9.882;2022-09-28T11:06:51;14.52;;;13.07;;
21519;SDS011;10921;53.614;9.882;2022-09-28T11:09:31;14.50;;;13.18;;
21519;SDS011;10921;53.614;9.882;2022-09-28T11:12:00;12.68;;;11.52;;
21519;SDS011;10921;53.614;9.882;2022-09-28T11:14:35;12.57;;;11.57;;
21519;SDS011;10921;53.614;9.882;2022-09-28T11:22:53;12.40;;;10.85;;
21519;SDS011;10921;53.614;9.882;2022-09-28T11:25:40;11.85;;;10.95;;
21519;SDS011;10921;53.614;9.882;2022-09-28T11:28:12;12.77;;;11.57;;
21519;SDS011;10921;53.614;9.882;2022-09-28T11:30:48;12.82;;;11.73;;
21519;SDS011;10921;53.614;9.882;2022-09-28T11:33:18;12.80;;;11.50;;
21519;SDS011;10921;53.614;9.882;2022-09-28T11:44:09;14.63;;;11.23;;
21519;SDS011;10921;53.614;9.882;2022-09-28T11:49:52;12.05;;;11.05;;
21519;SDS011;10921;53.614;9.882;2022-09-28T11:55:24;13.05;;;11.77;;
21519;SDS011;10921;53.614;9.882;2022-09-28T11:58:00;13.10;;;12.00;;
21519;SDS011;10921;53.614;9.882;2022-09-28T12:00:35;11.73;;;10.75;;
21519;SDS011;10921;53.614;9.882;2022-09-28T12:03:10;12.30;;;11.35;;
21519;SDS011;10921;53.614;9.882;2022-09-28T12:05:46;11.93;;;10.93;;
21519;SDS011;10921;53.614;9.882;2022-09-28T12:08:23;12.23;;;10.80;;
21519;SDS011;10921;53.614;9.882;2022-09-28T12:11:11;13.48;;;12.13;;
21519;SDS011;10921;53.614;9.882;2022-09-28T12:13:44;11.95;;;10.90;;
21519;SDS011;10921;53.614;9.882;2022-09-28T12:16:14;11.75;;;10.80;;
21519;SDS011;10921;53.614;9.882;2022-09-28T12:19:29;11.10;;;10.13;;
21519;SDS011;10921;53.614;9.882;2022-09-28T12:22:04;11.30;;;10.30;;
21519;SDS011;10921;53.614;9.882;2022-09-28T12:24:42;11.18;;;10.18;;
21519;SDS011;10921;53.614;9.882;2022-09-28T12:30:02;11.40;;;10.30;;
21519;SDS011;10921;53.614;9.882;2022-09-28T12:32:50;11.80;;;10.70;;
21519;SDS011;10921;53.614;9.882;2022-09-28T12:35:27;10.77;;;9.98;;
21519;SDS011;10921;53.614;9.882;2022-09-28T12:52:37;11.45;;;10.35;;
21519;SDS011;10921;53.614;9.882;2022-09-28T12:58:39;11.25;;;10.25;;
21519;SDS011;10921;53.614;9.882;2022-09-28T13:03:44;11.77;;;10.88;;
21519;SDS011;10921;53.614;9.882;2022-09-28T13:06:33;11.68;;;10.68;;
21519;SDS011;10921;53.614;9.882;2022-09-28T13:09:20;11.88;;;10.70;;
21519;SDS011;10921;53.614;9.882;2022-09-28T13:14:32;11.32;;;10.25;;
21519;SDS011;10921;53.614;9.882;2022-09-28T13:17:23;10.95;;;10.00;;
21519;SDS011;10921;53.614;9.882;2022-09-28T13:23:10;11.23;;;10.18;;
21519;SDS011;10921;53.614;9.882;2022-09-28T13:25:48;10.95;;;10.02;;
21519;SDS011;10921;53.614;9.882;2022-09-28T13:28:19;11.02;;;9.98;;
21519;SDS011;10921;53.614;9.882;2022-09-28T13:30:52;11.40;;;10.27;;
21519;SDS011;10921;53.614;9.882;2022-09-28T13:33:33;11.05;;;10.15;;
21519;SDS011;10921;53.614;9.882;2022-09-28T13:36:33;11.82;;;10.50;;
21519;SDS011;10921;53.614;9.882;2022-09-28T13:39:01;11.13;;;10.33;;
21519;SDS011;10921;53.614;9.882;2022-09-28T13:41:32;12.30;;;11.00;;
21519;SDS011;10921;53.614;9.882;2022-09-28T13:44:10;12.85;;;10.80;;
21519;SDS011;10921;53.614;9.882;2022-09-28T13:46:48;12.30;;;11.10;;
21519;SDS011;10921;53.614;9.882;2022-09-28T13:57:55;12.68;;;11.23;;
21519;SDS011;10921;53.614;9.882;2022-09-28T14:00:37;12.13;;;11.02;;
21519;SDS011;10921;53.614;9.882;2022-09-28T14:08:38;12.10;;;11.07;;
21519;SDS011;10921;53.614;9.882;2022-09-28T14:16:39;11.35;;;10.52;;
21519;SDS011;10921;53.614;9.882;2022-09-28T14:19:08;11.60;;;10.48;;
21519;SDS011;10921;53.614;9.882;2022-09-28T14:29:33;11.63;;;10.73;;
21519;SDS011;10921;53.614;9.882;2022-09-28T14:34:40;10.75;;;10.05;;
21519;SDS011;10921;53.614;9.882;2022-09-28T14:37:18;11.30;;;10.40;;
21519;SDS011;10921;53.614;9.882;2022-09-28T14:40:15;11.43;;;10.45;;
21519;SDS011;10921;53.614;9.882;2022-09-28T14:43:20;11.02;;;10.13;;
21519;SDS011;10921;53.614;9.882;2022-09-28T14:48:55;11.57;;;10.48;;
21519;SDS011;10921;53.614;9.882;2022-09-28T14:53:56;13.25;;;11.70;;
21519;SDS011;10921;53.614;9.882;2022-09-28T14:56:30;11.13;;;10.20;;
21519;SDS011;10921;53.614;9.882;2022-09-28T14:59:04;11.85;;;10.75;;
21519;SDS011;10921;53.614;9.882;2022-09-28T15:01:32;13.70;;;10.80;;
21519;SDS011;10921;53.614;9.882;2022-09-28T15:04:01;11.10;;;10.20;;
21519;SDS011;10921;53.614;9.882;2022-09-28T15:06:43;12.07;;;11.07;;
21519;SDS011;10921;53.614;9.882;2022-09-28T15:09:26;12.02;;;11.02;;
21519;SDS011;10921;53.614;9.882;2022-09-28T15:14:50;11.40;;;10.40;;
21519;SDS011;10921;53.614;9.882;2022-09-28T15:17:21;11.32;;;10.43;;
21519;SDS011;10921;53.614;9.882;2022-09-28T15:22:28;12.35;;;11.02;;
21519;SDS011;10921;53.614;9.882;2022-09-28T15:24:56;13.25;;;11.55;;
21519;SDS011;10921;53.614;9.882;2022-09-28T15:27:34;12.15;;;11.00;;
21519;SDS011;10921;53.614;9.882;2022-09-28T15:30:18;12.50;;;11.15;;
21519;SDS011;10921;53.614;9.882;2022-09-28T15:32:48;11.77;;;10.77;;
21519;SDS011;10921;53.614;9.882;2022-09-28T15:35:18;12.02;;;10.88;;
21519;SDS011;10921;53.614;9.882;2022-09-28T15:37:47;10.88;;;10.07;;
21519;SDS011;10921;53.614;9.882;2022-09-28T15:40:20;11.85;;;10.68;;
21519;SDS011;10921;53.614;9.882;2022-09-28T15:42:54;12.27;;;11.27;;
21519;SDS011;10921;53.614;9.882;2022-09-28T15:45:25;12.05;;;10.80;;
21519;SDS011;10921;53.614;9.882;2022-09-28T15:48:01;12.25;;;11.15;;
21519;SDS011;10921;53.614;9.882;2022-09-28T15:50:54;11.73;;;10.73;;
21519;SDS011;10921;53.614;9.882;2022-09-28T15:53:23;11.57;;;10.57;;
21519;SDS011;10921;53.614;9.882;2022-09-28T15:55:50;12.60;;;11.57;;
21519;SDS011;10921;53.614;9.882;2022-09-28T15:58:17;13.18;;;12.13;;
21519;SDS011;10921;53.614;9.882;2022-09-28T16:00:50;12.45;;;11.15;;
21519;SDS011;10921;53.614;9.882;2022-09-28T16:03:40;12.07;;;10.98;;
21519;SDS011;10921;53.614;9.882;2022-09-28T16:06:07;11.90;;;10.90;;
21519;SDS011;10921;53.614;9.882;2022-09-28T16:11:06;11.38;;;10.38;;
21519;SDS011;10921;53.614;9.882;2022-09-28T16:13:37;12.25;;;11.05;;
21519;SDS011;10921;53.614;9.882;2022-09-28T16:16:20;10.77;;;9.88;;
21519;SDS011;10921;53.614;9.882;2022-09-28T16:18:51;11.48;;;10.30;;
21519;SDS011;10921;53.614;9.882;2022-09-28T16:24:23;11.50;;;10.50;;
21519;SDS011;10921;53.614;9.882;2022-09-28T16:35:48;11.85;;;10.70;;
21519;SDS011;10921;53.614;9.882;2022-09-28T16:37:37;17.98;;;12.50;;
21519;SDS011;10921;53.614;9.882;2022-09-28T16:40:08;14.57;;;11.77;;
21519;SDS011;10921;53.614;9.882;2022-09-28T16:42:35;12.98;;;11.60;;
21519;SDS011;10921;53.614;9.882;2022-09-28T16:45:02;15.43;;;11.52;;
21519;SDS011;10921;53.614;9.882;2022-09-28T16:47:30;12.40;;;11.10;;
21519;SDS011;10921;53.614;9.882;2022-09-28T16:49:59;12.55;;;11.23;;
21519;SDS011;10921;53.614;9.882;2022-09-28T16:52:27;13.52;;;11.02;;
21519;SDS011;10921;53.614;9.882;2022-09-28T16:55:12;14.40;;;11.10;;
21519;SDS011;10921;53.614;9.882;2022-09-28T16:58:01;12.70;;;11.52;;
21519;SDS011;10921;53.614;9.882;2022-09-28T17:00:29;13.27;;;11.98;;
21519;SDS011;10921;53.614;9.882;2022-09-28T17:02:56;13.40;;;11.95;;
21519;SDS011;10921;53.614;9.882;2022-09-28T17:05:23;13.00;;;11.90;;
21519;SDS011;10921;53.614;9.882;2022-09-28T17:07:58;13.32;;;12.02;;
21519;SDS011;10921;53.614;9.882;2022-09-28T17:10:34;12.90;;;11.80;;
21519;SDS011;10921;53.614;9.882;2022-09-28T17:13:25;13.88;;;12.45;;
21519;SDS011;10921;53.614;9.882;2022-09-28T17:15:56;13.50;;;12.15;;
21519;SDS011;10921;53.614;9.882;2022-09-28T17:18:23;19.70;;;13.95;;
21519;SDS011;10921;53.614;9.882;2022-09-28T17:20:50;16.13;;;14.43;;
21519;SDS011;10921;53.614;9.882;2022-09-28T17:23:20;15.90;;;14.02;;
21519;SDS011;10921;53.614;9.882;2022-09-28T17:25:46;18.90;;;15.63;;
21519;SDS011;10921;53.614;9.882;2022-09-28T17:28:16;16.70;;;15.07;;
21519;SDS011;10921;53.614;9.882;2022-09-28T17:30:45;17.45;;;14.85;;
21519;SDS011;10921;53.614;9.882;2022-09-28T17:33:12;22.40;;;16.75;;
21519;SDS011;10921;53.614;9.882;2022-09-28T17:35:40;19.55;;;16.13;;
21519;SDS011;10921;53.614;9.882;2022-09-28T17:38:09;17.67;;;15.88;;